createdAt,value
2024-02-22T00:02:12.993Z,70.10
2024-02-22T00:04:40.438Z,70.30
2024-02-22T00:07:11.352Z,70.40
2024-02-22T00:09:38.827Z,70.20
2024-02-22T00:12:06.504Z,70.20
2024-02-22T00:14:35.439Z,70.00
2024-02-22T00:17:03.740Z,70.10
2024-02-22T00:19:31.425Z,70.30
2024-02-22T00:21:59.240Z,70.30
2024-02-22T00:24:26.841Z,70.20
2024-02-22T00:26:54.186Z,70.40
2024-02-22T00:29:21.460Z,70.30
2024-02-22T00:31:48.785Z,70.80
2024-02-22T00:34:16.106Z,70.70
2024-02-22T00:36:43.849Z,70.70
2024-02-22T00:39:11.457Z,70.70
2024-02-22T00:41:39.316Z,70.90
2024-02-22T00:44:08.315Z,70.40
2024-02-22T00:46:37.037Z,70.80
2024-02-22T00:49:05.014Z,70.90
2024-02-22T00:51:32.530Z,70.80
2024-02-22T00:53:59.831Z,71.60
2024-02-22T00:56:27.096Z,71.40
2024-02-22T00:58:54.454Z,71.00
2024-02-22T01:01:22.003Z,71.30
2024-02-22T01:03:49.593Z,71.60
2024-02-22T01:06:17.033Z,72.00
2024-02-22T01:08:44.361Z,71.80
2024-02-22T01:11:11.880Z,72.10
2024-02-22T01:13:39.293Z,72.10
2024-02-22T01:16:07.130Z,72.00
2024-02-22T01:18:35.385Z,72.00
2024-02-22T01:21:02.844Z,72.30
2024-02-22T01:23:30.101Z,72.50
2024-02-22T01:26:01.239Z,72.50
2024-02-22T01:28:30.538Z,72.90
2024-02-22T01:30:57.896Z,73.20
2024-02-22T01:33:25.313Z,73.50
2024-02-22T01:35:52.662Z,74.00
2024-02-22T01:38:20.091Z,74.20
2024-02-22T01:40:47.440Z,75.10
2024-02-22T01:43:14.722Z,75.60
2024-02-22T01:45:41.991Z,75.90
2024-02-22T01:48:09.569Z,76.80
2024-02-22T01:50:40.516Z,76.60
2024-02-22T01:53:08.584Z,77.40
2024-02-22T01:55:36.421Z,77.50
2024-02-22T01:58:05.242Z,77.90
2024-02-22T02:00:34.047Z,78.10
2024-02-22T02:03:01.506Z,78.00
2024-02-22T02:05:28.942Z,78.40
2024-02-22T02:07:56.360Z,78.70
2024-02-22T02:10:23.663Z,78.60
2024-02-22T02:12:50.953Z,78.90
2024-02-22T02:15:18.273Z,79.20
2024-02-22T02:17:45.733Z,79.40
2024-02-22T02:20:14.165Z,79.80
2024-02-22T02:22:47.766Z,80.00
2024-02-22T02:25:15.580Z,80.30
2024-02-22T02:27:43.860Z,80.30
2024-02-22T02:30:11.797Z,80.50
2024-02-22T02:32:39.390Z,80.70
2024-02-22T02:35:07.030Z,81.00
2024-02-22T02:37:34.375Z,81.20
2024-02-22T02:40:01.920Z,81.50
2024-02-22T02:42:29.204Z,81.90
2024-02-22T02:44:56.462Z,81.60
2024-02-22T02:47:23.789Z,81.80
2024-02-22T02:49:51.254Z,81.90
2024-02-22T02:52:18.569Z,82.00
2024-02-22T02:54:45.831Z,82.20
2024-02-22T02:57:13.108Z,82.10
2024-02-22T02:59:40.419Z,82.20
2024-02-22T03:02:08.368Z,82.40
2024-02-22T03:04:36.091Z,82.70
2024-02-22T03:07:03.965Z,82.70
2024-02-22T03:09:31.209Z,82.70
2024-02-22T03:11:58.672Z,82.80
2024-02-22T03:14:26.138Z,83.10
2024-02-22T03:16:53.447Z,83.10
2024-02-22T03:19:20.690Z,83.30
2024-02-22T03:21:47.916Z,83.50
2024-02-22T03:24:16.067Z,83.70
2024-02-22T03:26:47.155Z,83.60
2024-02-22T03:29:14.576Z,83.90
2024-02-22T03:31:42.626Z,83.90
2024-02-22T03:34:10.003Z,84.30
2024-02-22T03:36:37.727Z,84.30
2024-02-22T03:39:06.347Z,84.40
2024-02-22T03:41:33.672Z,84.50
2024-02-22T03:44:01.603Z,84.70
2024-02-22T03:46:29.068Z,84.80
2024-02-22T03:48:56.412Z,84.80
2024-02-22T03:51:23.703Z,85.10
2024-02-22T03:53:51.114Z,85.00
2024-02-22T03:56:18.824Z,85.00
2024-02-22T03:58:46.206Z,85.10
2024-02-22T04:01:15.009Z,85.20
2024-02-22T04:03:42.298Z,85.30
2024-02-22T04:06:09.905Z,85.40
2024-02-22T04:08:37.236Z,85.50
2024-02-22T04:11:04.758Z,85.40
2024-02-22T04:13:32.251Z,85.60
2024-02-22T04:15:59.576Z,85.60
2024-02-22T04:18:26.938Z,85.80
2024-02-22T04:20:54.252Z,86.10
2024-02-22T04:23:21.530Z,86.30
2024-02-22T04:25:48.926Z,86.40
2024-02-22T04:28:19.448Z,86.50
2024-02-22T04:30:46.819Z,86.50
2024-02-22T04:33:14.718Z,86.60
2024-02-22T04:35:48.949Z,86.70
2024-02-22T04:38:18.496Z,87.00
2024-02-22T04:40:45.952Z,87.00
2024-02-22T04:43:14.586Z,87.20
2024-02-22T04:45:42.074Z,87.30
2024-02-22T04:48:10.304Z,87.50
2024-02-22T04:50:37.993Z,87.20
2024-02-22T04:53:05.949Z,87.40
2024-02-22T04:55:33.629Z,87.40
2024-02-22T04:58:01.128Z,87.50
2024-02-22T05:00:28.444Z,87.40
2024-02-22T05:02:55.710Z,87.60
2024-02-22T05:05:23.196Z,87.60
2024-02-22T05:07:50.644Z,87.60
2024-02-22T05:10:18.003Z,87.80
2024-02-22T05:12:45.362Z,87.80
2024-02-22T05:15:12.750Z,87.90
2024-02-22T05:17:43.050Z,87.90
2024-02-22T05:20:10.651Z,88.00
2024-02-22T05:22:38.089Z,88.00
2024-02-22T05:25:06.174Z,88.20
2024-02-22T05:27:33.965Z,88.10
2024-02-22T05:30:02.226Z,88.30
2024-02-22T05:32:29.607Z,88.30
2024-02-22T05:34:57.049Z,88.40
2024-02-22T05:37:24.350Z,88.40
2024-02-22T05:39:51.610Z,88.40
2024-02-22T05:42:18.864Z,88.50
2024-02-22T05:44:46.166Z,88.50
2024-02-22T05:47:14.918Z,88.60
2024-02-22T05:49:42.793Z,88.40
2024-02-22T05:52:10.115Z,88.60
2024-02-22T05:54:37.752Z,88.60
2024-02-22T05:57:05.252Z,88.70
2024-02-22T05:59:32.506Z,88.70
2024-02-22T06:01:59.857Z,88.80
2024-02-22T06:04:27.191Z,88.80
2024-02-22T06:06:54.472Z,88.70
2024-02-22T06:09:21.958Z,88.80
2024-02-22T06:11:49.716Z,88.80
2024-02-22T06:14:17.106Z,89.00
2024-02-22T06:16:44.586Z,89.00
2024-02-22T06:19:11.969Z,89.10
2024-02-22T06:21:39.306Z,89.10
2024-02-22T06:24:06.991Z,89.30
2024-02-22T06:26:34.958Z,89.20
2024-02-22T06:29:02.948Z,89.30
2024-02-22T06:31:30.289Z,89.30
2024-02-22T06:33:57.743Z,89.40
2024-02-22T06:36:25.277Z,89.30
2024-02-22T06:38:52.621Z,89.40
2024-02-22T06:41:20.072Z,89.30
2024-02-22T06:43:47.443Z,89.40
2024-02-22T06:46:15.178Z,89.30
2024-02-22T06:48:42.499Z,89.40
2024-02-22T06:51:09.988Z,89.40
2024-02-22T06:53:37.407Z,89.50
2024-02-22T06:56:04.982Z,89.40
2024-02-22T06:58:32.338Z,89.40
2024-02-22T07:01:00.023Z,89.50
2024-02-22T07:03:27.956Z,89.30
2024-02-22T07:05:55.206Z,89.40
2024-02-22T07:08:22.587Z,89.50
2024-02-22T07:10:50.074Z,89.50
2024-02-22T07:13:17.416Z,89.50
2024-02-22T07:15:44.662Z,89.40
2024-02-22T07:18:12.180Z,89.70
2024-02-22T07:20:39.865Z,89.20
2024-02-22T07:23:07.380Z,89.40
2024-02-22T07:25:34.696Z,89.30
2024-02-22T07:28:02.044Z,89.40
2024-02-22T07:30:29.381Z,89.50
2024-02-22T07:32:56.774Z,89.30
2024-02-22T07:35:24.310Z,89.10
2024-02-22T07:37:51.739Z,89.10
2024-02-22T07:40:19.262Z,89.20
2024-02-22T07:42:47.084Z,89.40
2024-02-22T07:45:14.417Z,89.40
2024-02-22T07:47:41.748Z,89.30
2024-02-22T07:50:12.147Z,89.40
2024-02-22T07:52:41.020Z,89.40
2024-02-22T07:55:08.832Z,89.30
2024-02-22T07:57:36.666Z,89.20
2024-02-22T08:00:04.815Z,89.20
2024-02-22T08:02:36.113Z,89.20
2024-02-22T08:05:03.833Z,89.30
2024-02-22T08:07:31.840Z,89.00
2024-02-22T08:09:59.348Z,89.40
2024-02-22T08:12:26.702Z,89.20
2024-02-22T08:14:53.976Z,89.50
2024-02-22T08:17:21.471Z,89.40
2024-02-22T08:19:49.257Z,89.10
2024-02-22T08:22:18.006Z,89.30
2024-02-22T08:24:45.312Z,89.40
2024-02-22T08:27:12.627Z,89.30
2024-02-22T08:29:39.909Z,89.40
2024-02-22T08:32:08.656Z,89.30
2024-02-22T08:34:36.309Z,89.20
2024-02-22T08:37:03.819Z,89.50
2024-02-22T08:39:31.079Z,89.40
2024-02-22T08:41:58.356Z,89.50
2024-02-22T08:44:27.807Z,89.40
2024-02-22T08:46:55.139Z,89.30
2024-02-22T08:49:22.640Z,89.30
2024-02-22T08:51:49.974Z,89.00
2024-02-22T08:54:17.574Z,88.70
2024-02-22T08:56:46.224Z,88.60
2024-02-22T08:59:13.613Z,88.60
2024-02-22T09:01:40.992Z,88.30
2024-02-22T09:04:09.043Z,88.40
2024-02-22T09:06:36.614Z,88.40
2024-02-22T09:09:08.395Z,88.40
2024-02-22T09:11:35.947Z,88.20
2024-02-22T09:14:03.345Z,88.00
2024-02-22T09:16:31.273Z,88.40
2024-02-22T09:18:58.704Z,88.20
2024-02-22T09:21:26.054Z,88.00
2024-02-22T09:23:53.686Z,87.90
2024-02-22T09:26:21.087Z,87.80
2024-02-22T09:28:48.461Z,87.60
2024-02-22T09:31:18.356Z,87.60
2024-02-22T09:33:45.682Z,87.40
2024-02-22T09:36:13.441Z,87.10
2024-02-22T09:38:40.724Z,86.30
2024-02-22T09:41:10.310Z,86.50
2024-02-22T09:43:38.128Z,85.20
2024-02-22T09:46:05.484Z,86.50
2024-02-22T09:48:33.346Z,85.90
2024-02-22T09:51:01.940Z,85.50
2024-02-22T09:53:29.348Z,85.90
2024-02-22T09:55:57.036Z,85.90
2024-02-22T09:58:24.954Z,85.80
2024-02-22T10:00:52.491Z,85.80
2024-02-22T10:03:31.191Z,85.20
2024-02-22T10:05:59.392Z,85.20
2024-02-22T10:08:27.003Z,85.30
2024-02-22T10:11:06.507Z,85.30
2024-02-22T10:13:35.311Z,83.60
2024-02-22T10:16:13.202Z,83.90
2024-02-22T10:18:43.972Z,83.50
2024-02-22T10:21:19.588Z,84.00
2024-02-22T10:23:54.016Z,82.70
2024-02-22T10:26:21.615Z,83.40
2024-02-22T10:29:07.840Z,82.80
2024-02-22T10:31:41.198Z,81.80
2024-02-22T10:34:09.622Z,81.20
2024-02-22T10:36:38.115Z,82.30
2024-02-22T10:39:06.356Z,81.40
2024-02-22T10:41:35.824Z,80.60
2024-02-22T10:44:03.961Z,80.60
2024-02-22T10:46:36.177Z,80.70
2024-02-22T10:49:14.157Z,80.30
2024-02-22T10:51:42.473Z,80.40
2024-02-22T10:54:11.814Z,80.00
2024-02-22T10:56:42.638Z,80.00
2024-02-22T10:59:14.287Z,80.00
2024-02-22T11:01:43.932Z,79.30
2024-02-22T11:04:12.784Z,78.50
2024-02-22T11:06:40.861Z,79.70
2024-02-22T11:09:22.704Z,78.90
2024-02-22T11:11:53.605Z,78.40
2024-02-22T11:14:37.706Z,77.60
2024-02-22T11:17:19.294Z,77.10
2024-02-22T11:19:49.820Z,77.50
2024-02-22T11:22:20.978Z,77.50
2024-02-22T11:24:51.215Z,77.20
2024-02-22T11:27:18.962Z,75.60
2024-02-22T11:29:46.153Z,75.60
2024-02-22T11:32:15.021Z,75.80
2024-02-22T11:34:42.780Z,74.20
2024-02-22T11:37:23.903Z,75.90
2024-02-22T11:40:01.944Z,74.80
2024-02-22T11:42:30.284Z,74.70
2024-02-22T11:44:58.628Z,75.30
2024-02-22T11:47:26.552Z,74.00
2024-02-22T11:49:54.198Z,75.40
2024-02-22T11:52:22.803Z,73.50
2024-02-22T11:54:52.078Z,71.00
2024-02-22T11:57:19.943Z,71.90
2024-02-22T11:59:47.515Z,73.30
2024-02-22T12:02:15.916Z,70.90
2024-02-22T12:04:43.649Z,70.10
2024-02-22T12:07:11.547Z,70.00
2024-02-22T12:09:39.125Z,70.70
2024-02-22T12:12:07.954Z,72.80
2024-02-22T12:14:35.283Z,73.10
2024-02-22T12:17:02.972Z,72.40
2024-02-22T12:19:31.245Z,72.20
2024-02-22T12:22:02.019Z,72.80
2024-02-22T12:24:32.853Z,73.20
2024-02-22T12:27:02.534Z,74.50
2024-02-22T12:29:30.281Z,75.50
2024-02-22T12:32:06.096Z,76.00
2024-02-22T12:34:35.818Z,75.40
2024-02-22T12:37:03.858Z,74.90
2024-02-22T12:39:31.487Z,75.10
2024-02-22T12:42:01.977Z,73.90
2024-02-22T12:44:29.551Z,75.30
2024-02-22T12:46:59.494Z,74.10
2024-02-22T12:49:29.410Z,74.00
2024-02-22T12:51:56.809Z,74.30
2024-02-22T12:54:25.816Z,74.50
2024-02-22T12:56:54.449Z,74.40
2024-02-22T12:59:21.927Z,74.90
2024-02-22T13:01:49.639Z,75.70
2024-02-22T13:04:17.075Z,76.10
2024-02-22T13:06:44.588Z,76.30
2024-02-22T13:09:12.675Z,75.70
2024-02-22T13:11:40.244Z,76.00
2024-02-22T13:14:07.696Z,76.00
2024-02-22T13:16:35.937Z,75.80
2024-02-22T13:19:03.695Z,76.60
2024-02-22T13:21:31.044Z,76.50
2024-02-22T13:23:58.396Z,75.60
2024-02-22T13:26:25.771Z,74.50
2024-02-22T13:28:53.293Z,73.80
2024-02-22T13:31:21.074Z,73.40
2024-02-22T13:33:49.722Z,73.50
2024-02-22T13:36:17.348Z,74.70
2024-02-22T13:38:45.214Z,75.10
2024-02-22T13:41:13.977Z,75.40
2024-02-22T13:43:43.009Z,76.10
2024-02-22T13:46:10.537Z,75.80
2024-02-22T13:48:38.677Z,76.10
2024-02-22T13:51:06.487Z,76.50
2024-02-22T13:53:33.852Z,76.30
2024-02-22T13:56:02.199Z,76.00
2024-02-22T13:58:33.375Z,76.20
2024-02-22T14:01:00.939Z,76.50
2024-02-22T14:03:28.372Z,76.90
2024-02-22T14:05:55.847Z,77.10
2024-02-22T14:08:23.466Z,77.20
2024-02-22T14:10:50.915Z,77.40
2024-02-22T14:13:23.242Z,77.50
2024-02-22T14:15:52.186Z,78.10
2024-02-22T14:18:19.828Z,78.80
2024-02-22T14:20:47.203Z,78.20
2024-02-22T14:23:15.391Z,78.50
2024-02-22T14:25:45.607Z,78.20
2024-02-22T14:28:13.139Z,78.00
2024-02-22T14:30:40.540Z,77.70
2024-02-22T14:33:08.309Z,78.50
2024-02-22T14:35:35.846Z,77.60
2024-02-22T14:38:04.895Z,77.30
2024-02-22T14:40:32.238Z,77.40
2024-02-22T14:42:59.474Z,77.20
2024-02-22T14:45:26.773Z,77.30
2024-02-22T14:47:54.308Z,77.00
2024-02-22T14:50:21.891Z,77.30
2024-02-22T14:55:17.944Z,78.10
2024-02-22T14:57:46.472Z,78.60
2024-02-22T15:00:16.270Z,78.60
2024-02-22T15:02:43.721Z,79.10
2024-02-22T15:05:11.605Z,79.20
2024-02-22T15:07:39.134Z,79.50
2024-02-22T15:10:07.302Z,79.50
2024-02-22T15:12:34.656Z,79.70
2024-02-22T15:15:03.201Z,79.90
2024-02-22T15:17:31.687Z,79.50
2024-02-22T15:19:59.265Z,79.80
2024-02-22T15:22:26.826Z,79.70
2024-02-22T15:24:54.151Z,79.60
2024-02-22T15:27:23.485Z,79.50
2024-02-22T15:29:53.838Z,79.10
2024-02-22T15:32:21.457Z,79.20
2024-02-22T15:34:48.910Z,79.10
2024-02-22T15:37:16.482Z,79.00
2024-02-22T15:39:44.360Z,79.20
2024-02-22T15:42:11.724Z,79.20
2024-02-22T15:44:39.135Z,79.30
2024-02-22T15:47:06.524Z,79.80
2024-02-22T15:49:33.974Z,79.90
2024-02-22T15:52:01.329Z,80.40
2024-02-22T15:54:28.739Z,80.30
2024-02-22T15:56:56.081Z,80.60
2024-02-22T15:59:23.423Z,80.60
2024-02-22T16:01:52.307Z,80.70
2024-02-22T16:04:19.782Z,80.80
2024-02-22T16:06:47.006Z,80.60
2024-02-22T16:09:14.286Z,80.50
2024-02-22T16:11:41.781Z,80.30
2024-02-22T16:14:09.343Z,80.30
2024-02-22T16:19:05.424Z,80.90
2024-02-22T16:21:33.199Z,81.10
2024-02-22T16:24:00.543Z,81.30
2024-02-22T16:26:28.190Z,81.30
2024-02-22T16:28:55.544Z,81.30
2024-02-22T16:31:22.859Z,81.40
2024-02-22T16:33:50.310Z,81.60
2024-02-22T16:36:17.757Z,81.50
2024-02-22T16:38:50.507Z,81.20
2024-02-22T16:41:30.948Z,81.10
2024-02-22T16:43:58.860Z,81.10
2024-02-22T16:46:26.326Z,81.20
2024-02-22T16:48:53.861Z,81.10
2024-02-22T16:51:21.234Z,81.30
2024-02-22T16:53:49.847Z,81.50
2024-02-22T16:56:18.084Z,81.20
2024-02-22T16:58:45.607Z,81.00
2024-02-22T17:01:13.026Z,80.80
2024-02-22T17:03:40.507Z,80.70
2024-02-22T17:06:08.831Z,80.40
2024-02-22T17:08:36.201Z,80.50
2024-02-22T17:11:03.928Z,80.40
2024-02-22T17:13:32.864Z,80.30
2024-02-22T17:16:00.235Z,80.20
2024-02-22T17:18:30.455Z,80.20
2024-02-22T17:20:57.777Z,80.20
2024-02-22T17:23:27.859Z,80.20
2024-02-22T17:28:23.129Z,80.10
2024-02-22T17:30:51.020Z,80.30
2024-02-22T17:33:21.141Z,80.40
2024-02-22T17:35:48.755Z,80.50
2024-02-22T17:38:16.212Z,80.40
2024-02-22T17:40:45.225Z,80.40
2024-02-22T17:43:13.506Z,80.70
2024-02-22T17:45:40.776Z,80.80
2024-02-22T17:48:08.934Z,80.70
2024-02-22T17:53:04.181Z,80.70
2024-02-22T17:55:31.766Z,80.80
2024-02-22T17:57:59.181Z,80.90
2024-02-22T18:00:26.710Z,81.00
2024-02-22T18:03:03.326Z,81.20
2024-02-22T18:05:33.328Z,81.00
2024-02-22T18:08:03.973Z,81.00
2024-02-22T18:10:32.557Z,81.00
2024-02-22T18:13:00.555Z,81.00
2024-02-22T18:15:29.270Z,81.20
2024-02-22T18:17:56.692Z,81.40
2024-02-22T18:20:23.993Z,81.80
2024-02-22T18:22:51.385Z,81.90
2024-02-22T18:25:18.957Z,81.80
2024-02-22T18:27:47.066Z,82.00
2024-02-22T18:30:14.583Z,82.30
2024-02-22T18:32:41.940Z,82.50
2024-02-22T18:35:09.626Z,82.80
2024-02-22T18:37:38.073Z,82.70
2024-02-22T18:40:05.816Z,82.90
2024-02-22T18:42:33.046Z,83.10
2024-02-22T18:45:02.662Z,83.40
2024-02-22T18:47:31.308Z,83.60
2024-02-22T18:50:00.728Z,83.60
2024-02-22T18:52:28.576Z,83.30
2024-02-22T18:54:55.909Z,83.20
2024-02-22T18:57:23.353Z,83.00
2024-02-22T18:59:50.628Z,83.10
2024-02-22T19:02:17.924Z,83.00
2024-02-22T19:04:45.230Z,83.10
2024-02-22T19:07:12.506Z,82.90
2024-02-22T19:09:39.757Z,82.90
2024-02-22T19:12:07.357Z,83.10
2024-02-22T19:14:34.745Z,83.10
2024-02-22T19:17:02.137Z,83.20
2024-02-22T19:19:29.468Z,83.20
2024-02-22T19:21:56.777Z,83.20
2024-02-22T19:24:28.311Z,83.20
2024-02-22T19:27:00.766Z,83.10
2024-02-22T19:29:28.863Z,83.00
2024-02-22T19:31:57.723Z,82.70
2024-02-22T19:34:25.153Z,82.30
2024-02-22T19:36:52.523Z,81.80
2024-02-22T19:39:22.111Z,81.40
2024-02-22T19:41:50.597Z,81.30
2024-02-22T19:44:19.845Z,81.20
2024-02-22T19:46:47.273Z,81.60
2024-02-22T19:49:15.001Z,82.70
2024-02-22T19:51:42.993Z,83.30
2024-02-22T19:54:11.267Z,84.00
2024-02-22T19:56:38.598Z,84.00
2024-02-22T19:59:05.923Z,84.40
2024-02-22T20:01:33.209Z,84.30
2024-02-22T20:04:00.884Z,84.40
2024-02-22T20:06:28.541Z,83.60
2024-02-22T20:11:25.504Z,83.00
2024-02-22T20:13:59.700Z,83.20
2024-02-22T20:16:27.293Z,82.90
2024-02-22T20:18:54.808Z,83.20
2024-02-22T20:21:22.246Z,83.10
2024-02-22T20:23:51.630Z,83.10
2024-02-22T20:28:50.924Z,83.20
2024-02-22T20:31:18.541Z,83.20
2024-02-22T20:33:46.063Z,83.20
2024-02-22T20:36:13.648Z,83.30
2024-02-22T20:38:43.542Z,83.40
2024-02-22T20:41:15.932Z,83.50
2024-02-22T20:43:43.900Z,83.40
2024-02-22T20:46:11.506Z,83.40
2024-02-22T20:48:40.676Z,83.30
2024-02-22T20:51:07.948Z,83.30
2024-02-22T20:53:38.061Z,83.10
2024-02-22T20:56:05.692Z,82.90
2024-02-22T20:58:33.153Z,82.80
2024-02-22T21:01:00.769Z,82.70
2024-02-22T21:03:29.358Z,82.40
2024-02-22T21:05:57.695Z,82.00
2024-02-22T21:08:25.192Z,81.70
2024-02-22T21:10:58.039Z,81.00
2024-02-22T21:13:25.383Z,80.80
2024-02-22T21:15:53.493Z,80.70
2024-02-22T21:18:20.986Z,80.50
2024-02-22T21:20:48.364Z,80.20
2024-02-22T21:23:15.753Z,80.20
2024-02-22T21:25:45.700Z,80.40
2024-02-22T21:28:14.958Z,80.30
2024-02-22T21:30:42.252Z,80.30
2024-02-22T21:33:09.526Z,80.00
2024-02-22T21:35:36.844Z,79.70
2024-02-22T21:38:04.326Z,79.00
2024-02-22T21:40:31.910Z,78.70
2024-02-22T21:42:59.204Z,76.80
2024-02-22T21:45:28.245Z,76.60
2024-02-22T21:47:55.652Z,76.30
2024-02-22T21:50:24.301Z,75.90
2024-02-22T21:52:51.666Z,75.70
2024-02-22T21:55:19.021Z,75.50
2024-02-22T21:57:46.379Z,75.20
2024-02-22T22:00:14.148Z,74.90
2024-02-22T22:02:41.486Z,74.60
2024-02-22T22:05:11.060Z,74.30
2024-02-22T22:07:39.331Z,74.60
2024-02-22T22:10:06.924Z,74.40
2024-02-22T22:12:34.192Z,74.10
2024-02-22T22:15:05.144Z,73.70
2024-02-22T22:17:32.693Z,73.60
2024-02-22T22:20:00.298Z,72.80
2024-02-22T22:22:28.066Z,72.60
2024-02-22T22:24:55.407Z,71.60
2024-02-22T22:27:22.641Z,70.80
2024-02-22T22:29:50.042Z,70.90
2024-02-22T22:32:17.407Z,71.50
2024-02-22T22:34:44.740Z,72.10
2024-02-22T22:37:12.265Z,72.30
2024-02-22T22:39:39.479Z,71.70
2024-02-22T22:42:07.063Z,72.00
2024-02-22T22:44:36.608Z,72.30
2024-02-22T22:47:04.209Z,72.40
2024-02-22T22:49:31.477Z,72.20
2024-02-22T22:51:58.799Z,72.80
2024-02-22T22:54:26.150Z,72.70
2024-02-22T22:56:56.374Z,72.80
2024-02-22T22:59:23.918Z,72.70
2024-02-22T23:01:55.616Z,72.90
2024-02-22T23:04:24.241Z,72.80
2024-02-22T23:06:52.378Z,72.60
2024-02-22T23:09:21.306Z,73.00
2024-02-22T23:11:48.601Z,72.40
2024-02-22T23:14:15.932Z,72.20
2024-02-22T23:16:45.144Z,71.70
2024-02-22T23:19:12.477Z,71.60
2024-02-22T23:21:43.392Z,71.20
2024-02-22T23:24:10.757Z,70.90
2024-02-22T23:26:41.210Z,69.90
2024-02-22T23:29:09.559Z,70.60
2024-02-22T23:31:37.066Z,70.90
2024-02-22T23:34:04.483Z,71.20
2024-02-22T23:36:32.386Z,71.80
2024-02-22T23:39:00.803Z,72.40
2024-02-22T23:41:30.120Z,72.40
2024-02-22T23:44:01.970Z,73.00
2024-02-22T23:46:29.811Z,73.50
2024-02-22T23:48:57.541Z,73.00
2024-02-22T23:51:24.944Z,72.30
2024-02-22T23:53:52.283Z,71.30
2024-02-22T23:56:19.618Z,71.20
2024-02-22T23:58:47.064Z,70.70
